Time;durP1;ratioP1;P1;durP2;ratioP2;P2;SDS_P1;SDS_P2;PMS_P1;PMS_P2;Temp;Humidity;BMP_temperature;BMP_pressure;BME280_temperature;BME280_humidity;BME280_pressure;Samples;Min_cycle;Max_cycle;Signal;HPM_P1;HPM_P2
2021/10/01 00:00:56;;;;;;;2.03;1.60;;;22.20;55.20;;;;;;5161655;28;20414;-54
2021/10/01 00:03:28;;;;;;;2.20;1.37;;;22.20;55.30;;;;;;5163932;28;20549;-50
2021/10/01 00:06:01;;;;;;;4.18;1.73;;;22.20;55.20;;;;;;5166415;28;20054;-51
2021/10/01 00:08:33;;;;;;;2.67;1.13;;;22.20;55.20;;;;;;5165709;28;20049;-51
2021/10/01 00:11:06;;;;;;;2.83;1.38;;;22.20;55.30;;;;;;5170634;28;20754;-52
2021/10/01 00:13:38;;;;;;;3.42;1.40;;;22.20;55.30;;;;;;5167683;28;20054;-52
2021/10/01 00:16:11;;;;;;;2.08;1.30;;;22.10;55.00;;;;;;5168128;28;20049;-54
2021/10/01 00:18:44;;;;;;;3.90;1.57;;;22.10;55.20;;;;;;5165226;28;20046;-51
2021/10/01 00:21:16;;;;;;;2.10;1.20;;;22.10;55.10;;;;;;5161046;28;20053;-54
2021/10/01 00:23:49;;;;;;;2.47;1.48;;;22.10;55.10;;;;;;5167493;28;20046;-49
2021/10/01 00:26:21;;;;;;;6.18;1.80;;;22.10;55.20;;;;;;5167149;28;20038;-53
2021/10/01 00:28:53;;;;;;;5.30;1.60;;;22.10;55.00;;;;;;5168743;28;20050;-51
2021/10/01 00:31:26;;;;;;;1.55;1.23;;;22.10;55.00;;;;;;5165049;28;20076;-48
2021/10/01 00:34:01;;;;;;;5.17;1.77;;;22.10;55.00;;;;;;5167689;28;20068;-50
2021/10/01 00:36:34;;;;;;;2.92;1.50;;;22.10;55.00;;;;;;5166619;28;20422;-51
2021/10/01 00:39:07;;;;;;;5.88;1.63;;;22.00;55.10;;;;;;5166545;28;20042;-51
2021/10/01 00:41:40;;;;;;;2.50;1.15;;;22.00;55.10;;;;;;5176294;28;20057;-51
2021/10/01 00:44:12;;;;;;;1.88;1.42;;;22.00;55.00;;;;;;5142645;28;20050;-51
2021/10/01 00:46:45;;;;;;;2.55;1.70;;;22.00;55.00;;;;;;5167153;28;20054;-49
2021/10/01 00:49:17;;;;;;;1.60;1.48;;;22.00;55.00;;;;;;5170333;28;20073;-49
2021/10/01 00:51:51;;;;;;;1.98;1.20;;;22.00;55.00;;;;;;5164121;28;20530;-51
2021/10/01 00:54:24;;;;;;;2.85;1.30;;;22.00;55.10;;;;;;5164747;28;20807;-51
2021/10/01 00:56:59;;;;;;;1.90;1.33;;;22.00;55.10;;;;;;5173868;28;20058;-49
2021/10/01 00:59:31;;;;;;;1.70;1.20;;;22.00;55.10;;;;;;5165062;28;20077;-55
2021/10/01 01:02:04;;;;;;;5.60;1.33;;;22.00;55.10;;;;;;5168304;28;20052;-49
2021/10/01 01:04:41;;;;;;;3.58;1.40;;;22.00;54.90;;;;;;5169106;28;20058;-50
2021/10/01 01:07:31;;;;;;;1.48;1.25;;;22.00;55.10;;;;;;5169587;28;20056;-48
2021/10/01 01:10:10;;;;;;;3.00;1.50;;;22.00;55.10;;;;;;5179411;28;20060;-48
2021/10/01 01:12:59;;;;;;;3.88;1.73;;;21.90;54.80;;;;;;5182203;28;20052;-50
2021/10/01 01:15:41;;;;;;;3.13;1.75;;;21.90;55.00;;;;;;5183868;28;20037;-52
2021/10/01 01:18:23;;;;;;;2.42;1.27;;;22.00;55.00;;;;;;5183558;28;20414;-53
2021/10/01 01:20:58;;;;;;;4.82;1.40;;;21.90;54.80;;;;;;5185910;28;20049;-51
2021/10/01 01:23:50;;;;;;;2.70;1.38;;;21.90;55.00;;;;;;5167751;28;20046;-51
2021/10/01 01:26:49;;;;;;;3.15;1.50;;;21.90;54.70;;;;;;5173718;28;20046;-54
2021/10/01 01:29:28;;;;;;;1.85;1.20;;;21.90;54.50;;;;;;5183051;28;20042;-48
2021/10/01 01:32:21;;;;;;;1.60;1.20;;;21.90;54.80;;;;;;5174708;28;20069;-51
2021/10/01 01:34:59;;;;;;;1.48;1.05;;;22.00;54.80;;;;;;5184062;28;20038;-54
2021/10/01 01:37:45;;;;;;;2.13;1.10;;;21.90;54.80;;;;;;5171411;28;20046;-49
2021/10/01 01:40:22;;;;;;;1.98;1.00;;;21.90;54.80;;;;;;5186689;28;20045;-55
2021/10/01 01:42:58;;;;;;;2.33;1.50;;;21.90;54.70;;;;;;5171064;28;20057;-52
2021/10/01 01:45:31;;;;;;;3.15;1.30;;;21.90;54.80;;;;;;5171061;28;20061;-50
2021/10/01 01:48:09;;;;;;;3.80;1.42;;;21.90;54.80;;;;;;5174419;28;20061;-52
2021/10/01 01:50:45;;;;;;;3.78;1.75;;;21.90;54.60;;;;;;5186043;28;20368;-52
2021/10/01 01:53:18;;;;;;;2.20;1.58;;;21.90;54.60;;;;;;5180027;28;20042;-51
2021/10/01 01:55:51;;;;;;;2.13;1.40;;;21.90;54.70;;;;;;5163804;28;20049;-51
2021/10/01 01:58:26;;;;;;;2.08;1.30;;;21.90;54.60;;;;;;5174286;28;20053;-48
2021/10/01 02:01:18;;;;;;;2.78;1.13;;;21.90;54.60;;;;;;5172131;28;20507;-50
2021/10/01 02:04:11;;;;;;;1.52;1.15;;;21.90;54.40;;;;;;5184492;28;20046;-49
2021/10/01 02:06:45;;;;;;;2.40;1.38;;;21.80;54.40;;;;;;5174709;28;20038;-49
2021/10/01 02:09:20;;;;;;;2.60;1.30;;;21.80;54.30;;;;;;5190414;28;20046;-49
2021/10/01 02:11:52;;;;;;;1.45;1.08;;;21.80;54.40;;;;;;5190119;28;21075;-50
2021/10/01 02:14:27;;;;;;;1.85;1.25;;;21.80;54.40;;;;;;5174624;28;20049;-51
2021/10/01 02:17:00;;;;;;;1.73;1.00;;;21.80;54.30;;;;;;5191760;28;20057;-48
2021/10/01 02:19:35;;;;;;;4.82;1.40;;;21.80;54.30;;;;;;5174948;28;20045;-52
2021/10/01 02:22:10;;;;;;;1.55;1.23;;;21.80;54.30;;;;;;5183689;28;20046;-50
2021/10/01 02:24:44;;;;;;;1.45;1.08;;;21.80;54.50;;;;;;5170324;28;20042;-48
2021/10/01 02:27:22;;;;;;;1.63;1.30;;;21.80;54.40;;;;;;5186989;28;20046;-51
2021/10/01 02:30:12;;;;;;;2.22;1.30;;;21.80;54.50;;;;;;5180801;28;20049;-49
2021/10/01 02:33:06;;;;;;;1.55;1.17;;;21.80;54.50;;;;;;5171131;28;20053;-48
2021/10/01 02:35:38;;;;;;;2.20;1.10;;;21.80;54.40;;;;;;5186983;28;20053;-48
2021/10/01 02:38:11;;;;;;;7.70;1.30;;;21.70;54.50;;;;;;5186515;28;20612;-48
2021/10/01 02:40:43;;;;;;;3.72;1.25;;;21.80;54.50;;;;;;5167436;28;20038;-47
2021/10/01 02:43:16;;;;;;;1.63;1.20;;;21.70;54.50;;;;;;5184166;28;20048;-49
2021/10/01 02:45:48;;;;;;;3.47;1.17;;;21.80;54.60;;;;;;5173495;28;20058;-49
2021/10/01 02:48:21;;;;;;;2.58;1.02;;;21.80;54.60;;;;;;5170579;28;20065;-50
2021/10/01 02:51:02;;;;;;;2.63;1.27;;;21.70;55.00;;;;;;5184473;28;20052;-51
2021/10/01 02:53:47;;;;;;;2.83;1.13;;;21.70;54.40;;;;;;5182726;28;20116;-54
2021/10/01 02:56:29;;;;;;;2.72;1.30;;;21.70;54.40;;;;;;5171589;28;20581;-50
2021/10/01 02:59:03;;;;;;;2.20;1.27;;;21.70;54.30;;;;;;5183617;28;20120;-47
2021/10/01 03:01:37;;;;;;;2.55;1.38;;;21.70;54.90;;;;;;5183329;28;20050;-48
2021/10/01 03:04:12;;;;;;;4.82;1.40;;;21.70;54.20;;;;;;5189903;28;20050;-51
2021/10/01 03:06:47;;;;;;;4.38;1.27;;;21.70;54.90;;;;;;5164602;28;20053;-51
2021/10/01 03:09:23;;;;;;;2.80;1.30;;;21.70;54.20;;;;;;5168511;28;20503;-47
2021/10/01 03:11:57;;;;;;;3.28;1.05;;;21.70;54.10;;;;;;5170803;28;20502;-47
2021/10/01 03:14:31;;;;;;;3.75;1.38;;;21.70;54.00;;;;;;5184861;28;20053;-48
2021/10/01 03:17:05;;;;;;;1.98;1.10;;;21.70;54.10;;;;;;5188065;28;20041;-47
2021/10/01 03:19:38;;;;;;;7.25;1.30;;;21.70;54.00;;;;;;5176552;28;20053;-52
2021/10/01 03:22:11;;;;;;;4.35;1.00;;;21.70;54.00;;;;;;5168243;28;20037;-51
2021/10/01 03:24:46;;;;;;;;;;;21.70;54.00;;;;;;5169409;28;20045;-50
2021/10/01 03:27:19;;;;;;;2.87;0.97;;;21.60;53.90;;;;;;5169171;28;20390;-52
2021/10/01 03:29:51;;;;;;;1.27;1.05;;;21.60;54.00;;;;;;5180789;28;22291;-47
2021/10/01 03:32:24;;;;;;;2.60;1.33;;;21.70;53.90;;;;;;5175926;28;20053;-48
2021/10/01 03:34:57;;;;;;;1.38;1.00;;;21.60;54.60;;;;;;5170519;28;20050;-49
2021/10/01 03:37:31;;;;;;;0.82;0.80;;;21.60;53.80;;;;;;5165207;28;20042;-53
2021/10/01 03:40:07;;;;;;;1.50;0.98;;;21.60;53.80;;;;;;5164380;28;20050;-49
2021/10/01 03:42:40;;;;;;;3.42;1.30;;;21.60;53.90;;;;;;5186122;28;20480;-49
2021/10/01 03:45:18;;;;;;;1.20;0.90;;;21.60;53.90;;;;;;5179338;28;20673;-47
2021/10/01 03:47:52;;;;;;;3.63;1.23;;;21.60;53.70;;;;;;5163635;28;20084;-49
2021/10/01 03:50:25;;;;;;;1.63;1.10;;;21.60;53.80;;;;;;5160082;28;20632;-51
2021/10/01 03:52:57;;;;;;;2.05;1.17;;;21.60;53.90;;;;;;5166544;28;20057;-48
2021/10/01 03:55:31;;;;;;;2.83;1.23;;;21.60;53.90;;;;;;5183537;28;20049;-49
2021/10/01 03:58:04;;;;;;;3.58;1.25;;;21.60;53.80;;;;;;5161218;28;20041;-51
2021/10/01 04:00:37;;;;;;;1.70;1.30;;;21.60;53.80;;;;;;5179014;28;20436;-48
2021/10/01 04:03:09;;;;;;;1.43;1.00;;;21.60;53.80;;;;;;5165584;28;20053;-51
2021/10/01 04:05:49;;;;;;;1.40;1.30;;;21.60;53.80;;;;;;5144532;28;20062;-52
2021/10/01 04:08:21;;;;;;;1.48;1.00;;;21.60;54.10;;;;;;5165241;28;20060;-53
2021/10/01 04:10:54;;;;;;;5.33;1.60;;;21.60;54.40;;;;;;5183034;28;20050;-48
2021/10/01 04:13:26;;;;;;;2.42;1.30;;;21.60;54.50;;;;;;5162095;28;20301;-51
2021/10/01 04:15:59;;;;;;;2.15;1.33;;;21.60;54.60;;;;;;5157925;28;20502;-50
2021/10/01 04:18:33;;;;;;;1.60;0.93;;;21.70;55.00;;;;;;5167640;28;20041;-48
2021/10/01 04:21:05;;;;;;;2.45;1.20;;;21.70;55.10;;;;;;5171898;28;20050;-51
2021/10/01 04:23:41;;;;;;;2.67;0.90;;;21.70;55.30;;;;;;5170252;28;20495;-50
2021/10/01 04:26:27;;;;;;;1.05;0.88;;;21.70;55.40;;;;;;5168394;28;21081;-50
2021/10/01 04:29:00;;;;;;;2.63;1.03;;;21.70;55.60;;;;;;5183734;28;20418;-52
2021/10/01 04:31:33;;;;;;;2.60;1.17;;;21.70;55.70;;;;;;5170048;28;20297;-52
2021/10/01 04:34:06;;;;;;;5.07;1.25;;;21.70;55.90;;;;;;5162752;28;20053;-52
2021/10/01 04:36:39;;;;;;;1.77;1.00;;;21.70;56.00;;;;;;5160021;28;20058;-48
2021/10/01 04:39:13;;;;;;;1.35;0.90;;;21.80;56.20;;;;;;5184685;28;20052;-48
2021/10/01 04:41:45;;;;;;;4.97;1.20;;;21.80;56.40;;;;;;5164720;28;20052;-51
2021/10/01 04:44:18;;;;;;;4.25;1.38;;;21.80;56.60;;;;;;5164144;28;20046;-51
2021/10/01 04:46:54;;;;;;;2.55;1.20;;;21.80;56.70;;;;;;5177977;28;20050;-51
2021/10/01 04:49:28;;;;;;;6.00;1.42;;;21.80;56.80;;;;;;5167832;28;20057;-51
2021/10/01 04:52:00;;;;;;;5.18;1.20;;;21.90;57.00;;;;;;5154758;28;20049;-52
2021/10/01 04:54:33;;;;;;;4.70;1.55;;;21.90;57.10;;;;;;5148681;28;20065;-52
2021/10/01 04:57:07;;;;;;;2.58;1.15;;;21.90;57.20;;;;;;5152779;28;20042;-53
2021/10/01 04:59:59;;;;;;;;;;;21.90;57.20;;;;;;5151237;28;20068;-53
2021/10/01 05:02:50;;;;;;;6.97;1.83;;;21.90;58.30;;;;;;5161422;28;20903;-51
2021/10/01 05:05:29;;;;;;;11.57;2.05;;;21.90;57.60;;;;;;5148632;28;20034;-53
2021/10/01 05:08:20;;;;;;;22.92;2.90;;;21.90;57.80;;;;;;5145715;28;20354;-50
2021/10/01 05:11:21;;;;;;;17.77;2.80;;;21.90;57.90;;;;;;5153078;28;20050;-51
2021/10/01 05:14:12;;;;;;;26.30;2.40;;;21.90;58.00;;;;;;5152308;28;20054;-50
2021/10/01 05:17:03;;;;;;;13.20;1.88;;;22.00;58.00;;;;;;5162593;28;20541;-52
2021/10/01 05:20:11;;;;;;;15.93;2.40;;;22.00;58.00;;;;;;5149921;28;20065;-50
2021/10/01 05:22:51;;;;;;;7.95;2.05;;;22.00;58.00;;;;;;5151917;28;20046;-52
2021/10/01 05:25:26;;;;;;;14.10;2.05;;;22.00;58.10;;;;;;5149063;28;20046;-55
2021/10/01 05:27:58;;;;;;;14.73;2.13;;;22.00;58.00;;;;;;5166669;28;20050;-57
2021/10/01 05:30:32;;;;;;;19.80;2.35;;;22.00;58.00;;;;;;5145483;28;20057;-52
2021/10/01 05:33:09;;;;;;;13.52;2.17;;;22.00;57.80;;;;;;5143708;28;20064;-57
2021/10/01 05:35:43;;;;;;;8.50;1.65;;;22.00;57.70;;;;;;5153265;28;20049;-51
2021/10/01 05:38:16;;;;;;;11.70;1.38;;;22.00;57.60;;;;;;5147548;28;20041;-55
2021/10/01 05:40:49;;;;;;;7.55;2.30;;;22.00;57.70;;;;;;5153697;28;20727;-51
2021/10/01 05:43:25;;;;;;;7.93;1.90;;;22.00;57.60;;;;;;5165712;28;20042;-51
2021/10/01 05:45:59;;;;;;;11.68;1.73;;;22.00;57.50;;;;;;5163578;28;20054;-50
2021/10/01 05:48:33;;;;;;;8.75;1.63;;;22.10;57.50;;;;;;5156468;28;21430;-54
2021/10/01 05:51:26;;;;;;;14.18;2.33;;;22.00;57.40;;;;;;5150096;28;20981;-56
2021/10/01 05:54:24;;;;;;;15.50;1.85;;;22.00;57.50;;;;;;5136845;28;20061;-54
2021/10/01 05:57:16;;;;;;;30.30;3.28;;;22.00;57.70;;;;;;5147992;28;20057;-51
2021/10/01 06:00:07;;;;;;;28.40;3.63;;;22.10;58.10;;;;;;5132415;28;20054;-52
2021/10/01 06:02:46;;;;;;;26.63;3.28;;;22.10;58.20;;;;;;5129781;28;20046;-52
2021/10/01 06:05:19;;;;;;;36.92;3.58;;;22.20;58.10;;;;;;5120706;28;20042;-54
2021/10/01 06:07:51;;;;;;;32.10;3.13;;;22.30;58.20;;;;;;5125280;28;20713;-55
2021/10/01 06:10:24;;;;;;;23.65;3.38;;;22.40;58.20;;;;;;5130145;28;20080;-54
2021/10/01 06:12:56;;;;;;;22.40;3.07;;;22.40;57.90;;;;;;5126576;28;20038;-56
2021/10/01 06:15:29;;;;;;;25.33;3.05;;;22.50;57.80;;;;;;5125553;28;20265;-51
2021/10/01 06:18:01;;;;;;;15.50;2.67;;;22.60;58.00;;;;;;5140799;28;20066;-48
2021/10/01 06:20:34;;;;;;;18.77;3.47;;;22.70;57.70;;;;;;5146735;28;20054;-46
2021/10/01 06:23:06;;;;;;;18.48;2.75;;;22.70;57.60;;;;;;5164555;28;20418;-46
2021/10/01 06:25:38;;;;;;;25.85;3.42;;;22.80;57.60;;;;;;5162974;28;20061;-47
2021/10/01 06:28:12;;;;;;;31.20;3.00;;;22.80;57.80;;;;;;5170418;28;20064;-46
2021/10/01 06:30:44;;;;;;;26.98;2.40;;;22.80;57.70;;;;;;5171092;28;20061;-48
2021/10/01 06:33:17;;;;;;;16.07;3.50;;;22.80;57.60;;;;;;5167560;28;20041;-49
2021/10/01 06:35:50;;;;;;;14.88;2.45;;;22.90;57.70;;;;;;5167671;28;20061;-46
2021/10/01 06:38:22;;;;;;;20.55;2.33;;;22.80;57.50;;;;;;5173257;28;20033;-48
2021/10/01 06:40:55;;;;;;;15.95;2.70;;;22.80;57.50;;;;;;5175082;28;20833;-48
2021/10/01 06:43:29;;;;;;;17.48;2.53;;;22.90;57.60;;;;;;5171328;28;20045;-47
2021/10/01 06:46:04;;;;;;;16.70;2.70;;;22.80;57.50;;;;;;5176664;28;20042;-47
2021/10/01 06:49:07;;;;;;;12.32;2.20;;;22.80;57.60;;;;;;5192777;28;20042;-46
2021/10/01 07:35:08;;;;;;;16.80;2.25;;;23.00;59.30;;;;;;5170314;28;20046;-51
2021/10/01 08:20:20;;;;;;;6.63;1.35;;;22.90;60.80;;;;;;5166424;28;20426;-52
2021/10/01 08:22:52;;;;;;;9.50;2.75;;;22.90;60.70;;;;;;5179719;28;20060;-50
2021/10/01 08:25:25;;;;;;;7.17;1.97;;;22.90;60.60;;;;;;5167487;28;20072;-51
2021/10/01 08:27:57;;;;;;;13.77;2.03;;;22.90;60.70;;;;;;5167033;28;20057;-53
2021/10/01 08:30:30;;;;;;;8.20;1.65;;;22.90;60.60;;;;;;5166853;28;20050;-51
2021/10/01 08:33:03;;;;;;;4.30;2.00;;;22.90;60.60;;;;;;5167920;28;20510;-51
2021/10/01 08:35:36;;;;;;;8.23;1.65;;;22.90;60.70;;;;;;5170258;28;20770;-50
2021/10/01 08:38:08;;;;;;;10.45;2.05;;;22.90;60.60;;;;;;5159660;28;20051;-49
2021/10/01 08:40:41;;;;;;;8.15;1.80;;;22.90;60.60;;;;;;5164143;28;20045;-51
2021/10/01 08:43:13;;;;;;;11.40;1.73;;;22.90;60.50;;;;;;5165373;28;20046;-49
2021/10/01 08:45:46;;;;;;;4.55;1.70;;;22.90;60.40;;;;;;5163809;28;20042;-52
2021/10/01 08:48:20;;;;;;;5.73;1.53;;;22.90;60.40;;;;;;5166651;28;20060;-51
2021/10/01 08:50:52;;;;;;;5.90;1.58;;;22.90;60.40;;;;;;5161052;28;20528;-52
2021/10/01 08:53:26;;;;;;;6.65;1.15;;;22.90;60.30;;;;;;5156407;28;20057;-50
2021/10/01 08:55:59;;;;;;;;;;;22.90;60.40;;;;;;5165026;28;20057;-53
2021/10/01 08:58:31;;;;;;;4.82;1.50;;;22.90;60.40;;;;;;5163641;28;19925;-54
2021/10/01 09:01:04;;;;;;;4.72;1.45;;;22.90;60.40;;;;;;5173576;28;20052;-51
2021/10/01 09:03:41;;;;;;;7.03;1.45;;;22.90;60.40;;;;;;5162597;28;20056;-51
2021/10/01 09:06:15;;;;;;;3.40;1.38;;;22.90;60.40;;;;;;5168143;28;20050;-54
2021/10/01 09:08:49;;;;;;;7.38;1.95;;;22.90;60.40;;;;;;5172507;28;20418;-51
2021/10/01 09:11:29;;;;;;;7.45;1.75;;;22.90;60.40;;;;;;5171761;28;20403;-50
2021/10/01 09:14:07;;;;;;;5.18;1.30;;;22.90;60.40;;;;;;5174905;28;20042;-51
2021/10/01 09:16:42;;;;;;;12.70;1.90;;;22.90;60.40;;;;;;5175080;28;20046;-49
2021/10/01 09:19:14;;;;;;;6.13;1.27;;;22.90;60.40;;;;;;5175432;28;20046;-49
2021/10/01 09:21:49;;;;;;;3.20;1.23;;;22.90;60.40;;;;;;5174681;28;20414;-50
2021/10/01 09:24:26;;;;;;;5.75;1.70;;;22.90;60.40;;;;;;5172081;28;20893;-52
2021/10/01 09:26:58;;;;;;;7.63;1.20;;;22.90;60.40;;;;;;5174543;28;20046;-50
2021/10/01 09:29:33;;;;;;;4.88;1.33;;;22.90;60.40;;;;;;5175461;28;20387;-50
2021/10/01 09:32:13;;;;;;;4.82;1.35;;;22.90;60.40;;;;;;5174284;28;20053;-50
2021/10/01 09:34:47;;;;;;;8.52;1.40;;;22.90;60.40;;;;;;5172100;28;20049;-51
2021/10/01 09:37:22;;;;;;;4.07;1.30;;;22.90;60.40;;;;;;5169835;28;20089;-50
2021/10/01 09:39:58;;;;;;;2.88;1.17;;;22.90;60.40;;;;;;5168730;28;20053;-50
2021/10/01 09:42:39;;;;;;;3.00;1.05;;;22.90;60.40;;;;;;5169729;28;20061;-53
2021/10/01 09:45:13;;;;;;;8.60;1.33;;;22.90;60.40;;;;;;5169582;28;20057;-50
2021/10/01 09:47:49;;;;;;;5.30;1.27;;;22.90;60.40;;;;;;5160528;28;20406;-50
2021/10/01 09:50:26;;;;;;;3.10;1.27;;;22.90;60.50;;;;;;5162631;28;20050;-53
2021/10/01 09:53:03;;;;;;;3.22;1.40;;;22.90;60.50;;;;;;5164830;28;20050;-50
2021/10/01 09:55:38;;;;;;;3.60;1.17;;;23.00;60.50;;;;;;5159122;28;20045;-51
2021/10/01 09:58:13;;;;;;;5.63;1.48;;;22.90;60.50;;;;;;5161391;28;20720;-51
2021/10/01 10:00:52;;;;;;;5.07;1.40;;;22.90;60.60;;;;;;5173061;28;20053;-50
2021/10/01 10:03:25;;;;;;;7.57;1.63;;;22.90;60.50;;;;;;5167578;28;20050;-50
2021/10/01 10:06:05;;;;;;;3.38;1.35;;;22.90;60.60;;;;;;5169405;28;20048;-51
2021/10/01 10:08:40;;;;;;;4.07;1.55;;;23.00;60.70;;;;;;5169558;28;20057;-48
2021/10/01 10:11:16;;;;;;;4.18;1.23;;;23.00;60.70;;;;;;5165151;28;20056;-50
2021/10/01 10:13:50;;;;;;;5.75;1.27;;;22.90;60.70;;;;;;5168448;28;20076;-55
2021/10/01 10:16:25;;;;;;;4.47;1.48;;;22.90;60.70;;;;;;5159709;28;20081;-49
2021/10/01 10:18:59;;;;;;;6.35;1.52;;;22.90;60.70;;;;;;5156814;28;20061;-49
2021/10/01 10:21:33;;;;;;;4.90;1.55;;;22.90;60.70;;;;;;5152435;28;20064;-52
2021/10/01 10:24:06;;;;;;;2.72;1.20;;;22.90;60.80;;;;;;5145270;28;20042;-50
2021/10/01 10:26:38;;;;;;;14.95;1.70;;;22.90;60.80;;;;;;5156271;28;20832;-50
2021/10/01 10:29:12;;;;;;;4.70;1.42;;;22.90;60.90;;;;;;5158434;28;20049;-52
2021/10/01 10:31:47;;;;;;;7.45;1.23;;;22.90;60.90;;;;;;5149605;28;21420;-50
2021/10/01 10:34:30;;;;;;;5.70;1.50;;;22.90;60.90;;;;;;5159968;28;20038;-51
2021/10/01 10:37:04;;;;;;;5.28;1.42;;;23.00;61.00;;;;;;5167125;28;21869;-52
2021/10/01 10:39:40;;;;;;;4.55;1.40;;;22.90;61.00;;;;;;5155571;28;20958;-50
2021/10/01 10:42:17;;;;;;;5.43;1.40;;;23.00;61.00;;;;;;5149344;28;20581;-49
2021/10/01 10:45:01;;;;;;;5.65;1.27;;;23.00;61.00;;;;;;5168402;28;20900;-48
2021/10/01 10:48:01;;;;;;;4.90;1.40;;;23.00;61.10;;;;;;5160878;28;20054;-49
2021/10/01 10:50:42;;;;;;;4.45;1.35;;;23.00;61.10;;;;;;5164145;28;20041;-52
2021/10/01 10:53:18;;;;;;;7.38;1.50;;;23.00;61.10;;;;;;5167211;28;20056;-51
2021/10/01 10:55:56;;;;;;;6.47;1.30;;;23.10;61.10;;;;;;5161514;28;20057;-52
2021/10/01 10:58:28;;;;;;;2.97;1.17;;;23.10;61.10;;;;;;5170808;28;20388;-52
2021/10/01 11:01:13;;;;;;;5.00;1.27;;;23.20;61.10;;;;;;5163769;28;20750;-51
2021/10/01 11:04:19;;;;;;;4.07;1.73;;;23.20;61.00;;;;;;5164284;28;20049;-51
2021/10/01 11:06:51;;;;;;;5.35;1.30;;;23.30;60.90;;;;;;5164883;28;20037;-52
2021/10/01 11:09:27;;;;;;;5.07;1.58;;;23.30;60.80;;;;;;5165775;28;20045;-50
2021/10/01 11:12:22;;;;;;;2.78;1.15;;;23.30;61.30;;;;;;5162012;28;20502;-49
2021/10/01 11:15:15;;;;;;;3.30;1.17;;;23.40;60.60;;;;;;5169350;28;20053;-50
2021/10/01 11:18:14;;;;;;;2.20;1.20;;;23.40;60.40;;;;;;5173883;28;20053;-49
2021/10/01 11:20:47;;;;;;;2.90;1.23;;;23.50;60.30;;;;;;5167870;28;20045;-50
2021/10/01 11:23:20;;;;;;;2.83;1.35;;;23.60;60.20;;;;;;5151051;28;20054;-55
2021/10/01 11:25:53;;;;;;;3.80;1.83;;;23.60;60.10;;;;;;5134769;28;20061;-50
2021/10/01 11:28:32;;;;;;;2.43;0.93;;;23.60;59.90;;;;;;5147983;28;20054;-52
2021/10/01 11:31:05;;;;;;;5.18;1.30;;;23.70;59.90;;;;;;5151544;28;20320;-49
2021/10/01 11:33:45;;;;;;;2.57;1.20;;;23.70;59.90;;;;;;5148428;28;20651;-49
2021/10/01 11:36:25;;;;;;;3.80;1.30;;;23.80;59.80;;;;;;5164109;28;20049;-51
2021/10/01 11:39:11;;;;;;;8.65;1.30;;;23.80;59.70;;;;;;5134640;28;20057;-57
2021/10/01 11:41:47;;;;;;;4.85;1.80;;;23.90;59.70;;;;;;5128405;28;20042;-60
2021/10/01 11:44:24;;;;;;;3.58;1.75;;;23.90;59.80;;;;;;5130052;28;20042;-60
2021/10/01 11:46:57;;;;;;;3.40;1.33;;;24.00;59.60;;;;;;5126745;28;20315;-60
2021/10/01 11:49:31;;;;;;;8.25;1.50;;;24.10;59.60;;;;;;5128286;28;20054;-60
2021/10/01 11:52:12;;;;;;;4.90;1.33;;;24.20;59.20;;;;;;5127229;28;21174;-62
2021/10/01 11:54:59;;;;;;;6.47;1.60;;;24.30;58.90;;;;;;5138186;28;20545;-57
2021/10/01 11:57:39;;;;;;;9.50;2.08;;;24.40;58.70;;;;;;5141357;28;20054;-61
2021/10/01 12:00:17;;;;;;;4.47;1.30;;;24.50;58.50;;;;;;5137705;28;20046;-59
2021/10/01 12:02:52;;;;;;;5.25;1.38;;;24.60;58.40;;;;;;5144029;28;20045;-59
2021/10/01 12:05:32;;;;;;;4.47;1.30;;;24.70;58.20;;;;;;5141696;28;20330;-60
2021/10/01 12:08:07;;;;;;;2.13;1.30;;;24.70;58.00;;;;;;5135673;28;20046;-59
2021/10/01 12:10:49;;;;;;;3.80;1.23;;;24.80;57.90;;;;;;5145646;28;20046;-60
2021/10/01 12:13:39;;;;;;;4.07;1.25;;;24.80;57.70;;;;;;5138860;28;20045;-61
2021/10/01 12:16:12;;;;;;;6.07;1.77;;;24.90;57.70;;;;;;5141382;28;20407;-58
2021/10/01 12:18:59;;;;;;;2.35;1.20;;;25.00;57.60;;;;;;5142213;28;20046;-60
2021/10/01 12:21:35;;;;;;;6.70;1.30;;;25.00;57.40;;;;;;5144719;28;20700;-61
2021/10/01 12:24:12;;;;;;;2.60;1.48;;;25.10;57.40;;;;;;5140358;28;20050;-60
2021/10/01 12:26:45;;;;;;;6.47;1.42;;;25.10;57.20;;;;;;5140861;28;20550;-60
2021/10/01 12:29:20;;;;;;;4.03;1.20;;;25.20;57.20;;;;;;5138582;28;20391;-61
2021/10/01 12:32:03;;;;;;;5.60;1.35;;;25.20;57.10;;;;;;5142271;28;20393;-57
2021/10/01 12:34:48;;;;;;;2.85;1.30;;;25.20;56.80;;;;;;5137523;28;20037;-59
2021/10/01 12:37:28;;;;;;;4.65;1.55;;;25.30;56.80;;;;;;5134149;28;20046;-58
2021/10/01 12:40:03;;;;;;;2.30;1.23;;;25.30;56.80;;;;;;5138899;28;20636;-59
2021/10/01 12:42:38;;;;;;;9.07;1.52;;;25.40;56.70;;;;;;5140996;28;20049;-62
2021/10/01 12:45:17;;;;;;;7.30;1.60;;;25.40;56.50;;;;;;5139147;28;20042;-59
2021/10/01 12:47:51;;;;;;;3.95;1.17;;;25.50;56.40;;;;;;5135496;28;20054;-61
2021/10/01 12:50:33;;;;;;;3.40;1.40;;;25.50;56.30;;;;;;5141671;28;20046;-60
2021/10/01 12:53:08;;;;;;;4.50;1.23;;;25.60;56.20;;;;;;5137619;28;20107;-60
2021/10/01 12:55:44;;;;;;;5.70;1.77;;;25.60;56.30;;;;;;5138848;28;20046;-58
2021/10/01 12:58:20;;;;;;;1.70;1.05;;;25.60;56.20;;;;;;5140262;28;21241;-61
2021/10/01 13:00:54;;;;;;;2.92;1.30;;;25.60;56.20;;;;;;5136442;28;20057;-59
2021/10/01 13:03:26;;;;;;;2.95;1.25;;;25.70;56.20;;;;;;5136849;28;20059;-62
2021/10/01 13:05:59;;;;;;;2.10;1.10;;;25.70;56.20;;;;;;5135655;28;20349;-61
2021/10/01 13:08:33;;;;;;;4.72;1.30;;;25.70;56.20;;;;;;5128438;28;21537;-61
2021/10/01 13:11:06;;;;;;;2.00;1.35;;;25.70;56.10;;;;;;5136685;28;20054;-61
2021/10/01 13:13:40;;;;;;;3.87;1.13;;;25.80;56.10;;;;;;5134712;28;20054;-61
2021/10/01 13:16:25;;;;;;;2.55;1.10;;;25.80;56.10;;;;;;5146741;28;20503;-62
2021/10/01 13:19:11;;;;;;;3.08;1.55;;;25.80;56.00;;;;;;5141337;28;20057;-61
2021/10/01 13:21:55;;;;;;;1.75;1.20;;;25.90;56.00;;;;;;5147522;28;20038;-60
2021/10/01 13:24:27;;;;;;;1.38;0.93;;;25.90;56.00;;;;;;5145173;28;20077;-56
2021/10/01 13:27:08;;;;;;;3.08;1.23;;;25.90;56.00;;;;;;5142159;28;20050;-60
2021/10/01 13:29:41;;;;;;;1.92;1.30;;;25.90;55.80;;;;;;5145778;28;20054;-56
2021/10/01 13:32:13;;;;;;;2.17;1.20;;;26.00;55.90;;;;;;5149273;28;20050;-57
2021/10/01 13:34:45;;;;;;;6.03;1.52;;;26.00;55.80;;;;;;5144714;28;21044;-59
2021/10/01 13:37:20;;;;;;;3.15;1.40;;;26.00;55.80;;;;;;5142968;28;20058;-60
2021/10/01 13:39:59;;;;;;;4.32;1.27;;;26.00;55.70;;;;;;5142871;28;20042;-58
2021/10/01 13:42:31;;;;;;;4.40;1.50;;;26.00;55.70;;;;;;5149859;28;20041;-62
2021/10/01 13:45:05;;;;;;;5.85;1.63;;;26.00;55.60;;;;;;5129109;28;20049;-61
2021/10/01 13:47:38;;;;;;;5.88;1.63;;;26.10;55.60;;;;;;5133542;28;20042;-58
2021/10/01 13:50:11;;;;;;;5.18;1.30;;;26.10;55.60;;;;;;5152773;28;20050;-61
2021/10/01 13:52:44;;;;;;;8.57;1.92;;;26.10;55.60;;;;;;5125879;28;20049;-61
2021/10/01 13:55:18;;;;;;;5.93;1.35;;;26.10;55.40;;;;;;5134599;28;20045;-59
2021/10/01 13:57:51;;;;;;;7.18;1.70;;;26.10;55.30;;;;;;5129957;28;20041;-60
2021/10/01 14:00:25;;;;;;;3.42;1.40;;;26.20;55.30;;;;;;5134843;28;20061;-59
2021/10/01 14:02:58;;;;;;;6.72;1.58;;;26.20;55.30;;;;;;5146605;28;20058;-57
2021/10/01 14:05:30;;;;;;;4.87;1.60;;;26.20;55.30;;;;;;5132231;28;20053;-59
2021/10/01 14:08:04;;;;;;;3.83;1.70;;;26.20;55.30;;;;;;5138325;28;20304;-58
2021/10/01 14:10:36;;;;;;;6.93;1.63;;;26.20;55.40;;;;;;5135568;28;20393;-56
2021/10/01 14:13:12;;;;;;;6.97;2.03;;;26.20;55.80;;;;;;5143376;28;20497;-56
2021/10/01 14:15:49;;;;;;;5.30;1.90;;;26.20;55.40;;;;;;5143044;28;20054;-59
2021/10/01 14:18:25;;;;;;;7.68;1.85;;;26.20;55.50;;;;;;5147798;28;20049;-58
2021/10/01 14:21:12;;;;;;;6.75;1.63;;;26.20;55.40;;;;;;5142288;28;20047;-60
2021/10/01 14:23:45;;;;;;;5.22;1.55;;;26.20;55.50;;;;;;5146274;28;20054;-60
2021/10/01 14:26:18;;;;;;;4.45;1.50;;;26.20;55.50;;;;;;5146138;28;21109;-58
2021/10/01 14:28:50;;;;;;;5.15;1.73;;;26.10;55.50;;;;;;5148458;28;20054;-57
2021/10/01 14:31:23;;;;;;;3.83;1.73;;;26.10;55.70;;;;;;5150541;28;20549;-59
2021/10/01 14:33:56;;;;;;;4.73;1.47;;;26.00;55.70;;;;;;5152883;28;20049;-56
2021/10/01 14:36:28;;;;;;;5.18;1.67;;;26.00;55.80;;;;;;5146564;28;20042;-58
2021/10/01 14:39:01;;;;;;;5.78;1.60;;;25.90;55.90;;;;;;5141636;28;20057;-61
2021/10/01 14:41:34;;;;;;;2.85;1.40;;;25.80;56.10;;;;;;5148375;28;20056;-62
2021/10/01 14:44:06;;;;;;;5.97;1.50;;;25.70;56.20;;;;;;5149400;28;20065;-59
2021/10/01 14:46:39;;;;;;;3.58;1.65;;;25.70;56.30;;;;;;5134649;28;20050;-58
2021/10/01 14:49:11;;;;;;;4.70;2.23;;;25.60;56.40;;;;;;5145509;28;23070;-59
2021/10/01 14:51:45;;;;;;;6.25;1.90;;;25.60;56.60;;;;;;5150755;28;20046;-61
2021/10/01 14:54:17;;;;;;;3.20;1.35;;;25.50;56.60;;;;;;5152968;28;20053;-60
2021/10/01 14:56:50;;;;;;;4.80;1.60;;;25.40;56.80;;;;;;5148598;28;20515;-61
2021/10/01 14:59:22;;;;;;;2.67;1.20;;;25.40;56.90;;;;;;5166161;28;21115;-57